Terminal Aerodrome Forecast
Issued by NWS

Home | Current Version | Previous Version | Text Only | Print | Product List | Glossary On
Versions: 1 2 3 4 5 6 7 8 9 10 11 12 13 14 15 16 17
319
FTUS41 KCAR 161136
TAFHUL
TAF
KHUL 161136Z 1612/1712 VRB03KT 3SM -SN OVC015
     FM161600 VRB03KT 4SM -SN OVC020
     FM161900 00000KT P6SM SCT020 BKN060
     FM170700 18004KT P6SM -SN SCT020 OVC050
     FM171000 VRB03KT 2SM -SN OVC025=

USA.gov is the U.S. government's official web portal to all federal, state and local government web resources and services.